createdAt,value
2023-05-10T00:01:11.046Z,100.00
2023-05-10T00:03:37.943Z,100.00
2023-05-10T00:06:04.632Z,100.00
2023-05-10T00:08:31.196Z,100.00
2023-05-10T00:10:57.760Z,100.00
2023-05-10T00:13:24.461Z,100.00
2023-05-10T00:15:51.169Z,100.00
2023-05-10T00:18:19.083Z,100.00
2023-05-10T00:20:45.674Z,100.00
2023-05-10T00:23:12.279Z,100.00
2023-05-10T00:25:38.968Z,100.00
2023-05-10T00:28:05.502Z,100.00
2023-05-10T00:30:32.439Z,100.00
2023-05-10T00:32:59.082Z,100.00
2023-05-10T00:35:27.810Z,100.00
2023-05-10T00:37:54.348Z,100.00
2023-05-10T00:40:21.057Z,100.00
2023-05-10T00:42:53.614Z,100.00
2023-05-10T00:45:21.307Z,100.00
2023-05-10T00:47:47.919Z,100.00
2023-05-10T00:50:15.946Z,100.00
2023-05-10T00:52:44.154Z,100.00
2023-05-10T00:55:12.374Z,100.00
2023-05-10T00:57:39.318Z,100.00
2023-05-10T01:00:07.168Z,100.00
2023-05-10T01:02:35.139Z,100.00
2023-05-10T01:05:03.181Z,100.00
2023-05-10T01:07:29.970Z,100.00
2023-05-10T01:09:58.634Z,100.00
2023-05-10T01:12:25.593Z,100.00
2023-05-10T01:14:52.615Z,100.00
2023-05-10T01:17:19.642Z,100.00
2023-05-10T01:19:46.364Z,100.00
2023-05-10T01:22:40.010Z,100.00
2023-05-10T01:25:32.667Z,100.00
2023-05-10T01:28:45.355Z,100.00
2023-05-10T01:31:34.412Z,100.00
2023-05-10T01:34:07.892Z,100.00
2023-05-10T01:36:44.369Z,100.00
2023-05-10T01:39:18.184Z,100.00
2023-05-10T01:41:50.628Z,100.00
2023-05-10T01:44:22.119Z,100.00
2023-05-10T01:46:54.061Z,100.00
2023-05-10T01:49:29.973Z,100.00
2023-05-10T01:52:07.937Z,100.00
2023-05-10T01:54:36.389Z,100.00
2023-05-10T01:57:06.231Z,100.00
2023-05-10T01:59:36.160Z,100.00
2023-05-10T02:02:05.443Z,100.00
2023-05-10T02:04:36.068Z,100.00
2023-05-10T02:07:03.242Z,100.00
2023-05-10T02:09:32.860Z,100.00
2023-05-10T02:12:02.386Z,100.00
2023-05-10T02:14:30.809Z,100.00
2023-05-10T02:16:59.394Z,100.00
2023-05-10T02:19:29.757Z,100.00
2023-05-10T02:22:00.697Z,100.00
2023-05-10T02:24:28.336Z,100.00
2023-05-10T02:26:56.036Z,100.00
2023-05-10T02:29:24.403Z,100.00
2023-05-10T02:31:53.553Z,100.00
2023-05-10T02:34:22.740Z,100.00
2023-05-10T02:36:51.547Z,100.00
2023-05-10T02:39:21.537Z,100.00
2023-05-10T02:41:49.829Z,100.00
2023-05-10T02:44:20.080Z,100.00
2023-05-10T02:46:47.752Z,100.00
2023-05-10T02:49:14.528Z,100.00
2023-05-10T02:51:44.997Z,100.00
2023-05-10T02:54:19.436Z,100.00
2023-05-10T02:56:51.691Z,100.00
2023-05-10T02:59:18.258Z,100.00
2023-05-10T03:01:44.850Z,100.00
2023-05-10T03:04:11.687Z,100.00
2023-05-10T03:06:38.564Z,100.00
2023-05-10T03:09:05.380Z,100.00
2023-05-10T03:11:46.683Z,100.00
2023-05-10T03:14:31.060Z,100.00
2023-05-10T03:17:04.921Z,100.00
2023-05-10T03:19:36.950Z,100.00
2023-05-10T03:22:08.892Z,100.00
2023-05-10T03:24:40.178Z,100.00
2023-05-10T03:27:08.776Z,100.00
2023-05-10T03:29:37.927Z,100.00
2023-05-10T03:32:05.098Z,100.00
2023-05-10T03:34:32.392Z,100.00
2023-05-10T03:36:59.126Z,100.00
2023-05-10T03:39:28.296Z,100.00
2023-05-10T03:41:58.014Z,100.00
2023-05-10T03:44:24.691Z,100.00
2023-05-10T03:46:52.696Z,100.00
2023-05-10T03:49:19.562Z,100.00
2023-05-10T03:51:46.348Z,100.00
2023-05-10T03:54:12.924Z,100.00
2023-05-10T03:56:39.511Z,100.00
2023-05-10T03:59:06.749Z,100.00
2023-05-10T04:01:33.234Z,100.00
2023-05-10T04:04:01.124Z,100.00
2023-05-10T04:06:27.724Z,100.00
2023-05-10T04:08:55.182Z,100.00
2023-05-10T04:11:21.784Z,100.00
2023-05-10T04:13:48.309Z,100.00
2023-05-10T04:16:14.873Z,100.00
2023-05-10T04:18:41.371Z,100.00
2023-05-10T04:21:13.555Z,100.00
2023-05-10T04:23:40.332Z,100.00
2023-05-10T04:26:07.221Z,100.00
2023-05-10T04:28:34.914Z,100.00
2023-05-10T04:31:02.604Z,100.00
2023-05-10T04:33:29.201Z,100.00
2023-05-10T04:35:59.610Z,100.00
2023-05-10T04:38:27.738Z,100.00
2023-05-10T04:40:54.289Z,100.00
2023-05-10T04:43:21.272Z,100.00
2023-05-10T04:45:47.776Z,100.00
2023-05-10T04:48:14.474Z,100.00
2023-05-10T04:50:41.291Z,100.00
2023-05-10T04:53:08.030Z,100.00
2023-05-10T04:55:36.870Z,100.00
2023-05-10T04:58:03.455Z,100.00
2023-05-10T05:00:29.976Z,100.00
2023-05-10T05:02:56.575Z,100.00
2023-05-10T05:05:23.136Z,100.00
2023-05-10T05:07:49.755Z,100.00
2023-05-10T05:10:16.504Z,100.00
2023-05-10T05:12:44.623Z,100.00
2023-05-10T05:15:12.023Z,100.00
2023-05-10T05:17:38.659Z,100.00
2023-05-10T05:20:06.518Z,100.00
2023-05-10T05:22:33.090Z,100.00
2023-05-10T05:25:00.111Z,100.00
2023-05-10T05:27:26.779Z,100.00
2023-05-10T05:29:54.925Z,100.00
2023-05-10T05:32:21.554Z,100.00
2023-05-10T05:34:48.334Z,100.00
2023-05-10T05:37:15.111Z,100.00
2023-05-10T05:39:41.894Z,100.00
2023-05-10T05:42:08.708Z,100.00
2023-05-10T05:44:35.272Z,100.00
2023-05-10T05:47:03.328Z,100.00
2023-05-10T05:49:30.066Z,100.00
2023-05-10T05:51:59.981Z,100.00
2023-05-10T05:54:26.470Z,100.00
2023-05-10T05:56:55.000Z,100.00
2023-05-10T05:59:21.697Z,100.00
2023-05-10T06:01:48.350Z,100.00
2023-05-10T06:04:16.528Z,100.00
2023-05-10T06:06:43.516Z,100.00
2023-05-10T06:09:10.565Z,100.00
2023-05-10T06:11:37.404Z,100.00
2023-05-10T06:14:04.232Z,100.00
2023-05-10T06:16:30.838Z,100.00
2023-05-10T06:18:57.435Z,100.00
2023-05-10T06:21:25.446Z,100.00
2023-05-10T06:23:52.049Z,100.00
2023-05-10T06:26:18.561Z,100.00
2023-05-10T06:28:45.221Z,100.00
2023-05-10T06:31:11.828Z,100.00
2023-05-10T06:33:38.366Z,100.00
2023-05-10T06:36:05.565Z,100.00
2023-05-10T06:38:33.426Z,100.00
2023-05-10T06:40:59.930Z,100.00
2023-05-10T06:43:26.677Z,100.00
2023-05-10T06:45:53.230Z,100.00
2023-05-10T06:48:19.778Z,100.00
2023-05-10T06:50:46.292Z,100.00
2023-05-10T06:53:12.831Z,100.00
2023-05-10T06:55:40.824Z,100.00
2023-05-10T06:58:07.488Z,100.00
2023-05-10T07:00:34.184Z,100.00
2023-05-10T07:03:00.892Z,100.00
2023-05-10T07:05:27.527Z,100.00
2023-05-10T07:07:54.086Z,100.00
2023-05-10T07:10:20.920Z,100.00
2023-05-10T07:12:49.066Z,100.00
2023-05-10T07:15:15.683Z,100.00
2023-05-10T07:17:44.139Z,100.00
2023-05-10T07:20:13.144Z,99.80
2023-05-10T07:22:39.712Z,99.41
2023-05-10T07:25:07.233Z,99.27
2023-05-10T07:27:33.795Z,95.79
2023-05-10T07:30:01.767Z,96.25
2023-05-10T07:32:28.422Z,95.53
2023-05-10T07:34:55.039Z,95.55
2023-05-10T07:37:21.590Z,96.04
2023-05-10T07:39:48.155Z,95.73
2023-05-10T07:42:14.677Z,95.01
2023-05-10T07:44:41.208Z,94.31
2023-05-10T07:47:09.135Z,94.53
2023-05-10T07:49:35.677Z,93.87
2023-05-10T07:52:03.957Z,94.52
2023-05-10T07:54:30.481Z,94.12
2023-05-10T07:56:57.024Z,93.47
2023-05-10T07:59:23.590Z,94.61
2023-05-10T08:01:50.119Z,95.37
2023-05-10T08:04:18.096Z,94.93
2023-05-10T08:06:44.621Z,95.88
2023-05-10T08:09:11.142Z,96.21
2023-05-10T08:11:37.660Z,96.64
2023-05-10T08:14:04.246Z,97.29
2023-05-10T08:16:30.912Z,97.57
2023-05-10T08:18:57.545Z,97.13
2023-05-10T08:21:25.524Z,98.43
2023-05-10T08:23:52.073Z,98.54
2023-05-10T08:26:18.587Z,97.58
2023-05-10T08:28:45.343Z,96.86
2023-05-10T08:31:11.898Z,95.80
2023-05-10T08:33:38.452Z,94.88
2023-05-10T08:36:05.338Z,94.34
2023-05-10T08:38:33.528Z,94.50
2023-05-10T08:41:02.065Z,94.81
2023-05-10T08:43:30.049Z,94.48
2023-05-10T08:45:56.854Z,94.72
2023-05-10T08:48:25.186Z,94.27
2023-05-10T08:50:54.290Z,92.57
2023-05-10T08:53:21.837Z,92.49
2023-05-10T08:55:49.998Z,92.00
2023-05-10T08:58:16.730Z,92.23
2023-05-10T09:00:43.987Z,92.40
2023-05-10T09:03:11.191Z,92.18
2023-05-10T09:05:37.737Z,91.21
2023-05-10T09:08:04.889Z,91.22
2023-05-10T09:10:32.201Z,89.86
2023-05-10T09:13:00.258Z,89.56
2023-05-10T09:15:27.035Z,90.81
2023-05-10T09:17:53.716Z,91.31
2023-05-10T09:20:20.339Z,91.22
2023-05-10T09:22:46.881Z,90.76
2023-05-10T09:25:15.677Z,89.91
2023-05-10T09:27:45.654Z,88.06
2023-05-10T09:30:17.251Z,87.01
2023-05-10T09:32:45.771Z,86.89
2023-05-10T09:35:13.925Z,85.34
2023-05-10T09:37:41.807Z,85.19
2023-05-10T09:40:11.832Z,85.25
2023-05-10T09:42:39.171Z,85.30
2023-05-10T09:45:07.799Z,84.46
2023-05-10T09:47:36.612Z,84.21
2023-05-10T09:50:04.291Z,84.58
2023-05-10T09:52:31.593Z,84.70
2023-05-10T09:54:58.137Z,87.03
2023-05-10T09:57:25.576Z,88.18
2023-05-10T09:59:52.190Z,87.64
2023-05-10T10:02:18.858Z,89.21
2023-05-10T10:04:50.611Z,89.79
2023-05-10T10:07:24.307Z,89.87
2023-05-10T10:09:51.088Z,91.85
2023-05-10T10:12:17.757Z,90.76
2023-05-10T10:14:44.417Z,91.08
2023-05-10T10:17:11.527Z,91.49
2023-05-10T10:19:38.470Z,91.51
2023-05-10T10:22:06.734Z,90.40
2023-05-10T10:24:33.516Z,89.62
2023-05-10T10:27:08.719Z,91.28
2023-05-10T10:29:40.568Z,89.87
2023-05-10T10:32:18.321Z,87.77
2023-05-10T10:34:45.137Z,89.36
2023-05-10T10:37:13.089Z,88.50
2023-05-10T10:39:39.674Z,86.91
2023-05-10T10:42:06.205Z,86.94
2023-05-10T10:44:37.865Z,87.29
2023-05-10T10:47:05.941Z,84.69
2023-05-10T10:49:33.203Z,85.36
2023-05-10T10:52:22.509Z,85.32
2023-05-10T10:54:53.579Z,84.51
2023-05-10T10:57:21.336Z,84.66
2023-05-10T10:59:48.267Z,83.36
2023-05-10T11:02:34.470Z,82.59
2023-05-10T11:05:01.471Z,80.58
2023-05-10T11:07:29.402Z,80.52
2023-05-10T11:09:56.037Z,81.01
2023-05-10T11:12:23.455Z,78.53
2023-05-10T11:14:51.161Z,78.41
2023-05-10T11:17:25.117Z,75.36
2023-05-10T11:20:07.945Z,75.52
2023-05-10T11:22:50.359Z,76.65
2023-05-10T11:25:17.018Z,77.15
2023-05-10T11:27:43.707Z,77.69
2023-05-10T11:30:11.819Z,77.91
2023-05-10T11:32:39.346Z,79.34
2023-05-10T11:35:08.652Z,79.63
2023-05-10T11:37:35.233Z,80.98
2023-05-10T11:40:03.411Z,80.47
2023-05-10T11:42:30.123Z,81.18
2023-05-10T11:44:57.258Z,80.70
2023-05-10T11:47:23.801Z,79.38
2023-05-10T11:49:50.385Z,77.66
2023-05-10T11:52:19.600Z,77.77
2023-05-10T11:54:51.629Z,76.66
2023-05-10T11:57:20.818Z,75.15
2023-05-10T11:59:47.328Z,76.30
2023-05-10T12:02:14.744Z,77.49
2023-05-10T12:04:42.276Z,76.88
2023-05-10T12:07:09.026Z,75.56
2023-05-10T12:09:43.931Z,76.58
2023-05-10T12:12:11.398Z,76.92
2023-05-10T12:14:39.246Z,74.64
2023-05-10T12:17:05.832Z,72.82
2023-05-10T12:19:38.262Z,72.03
2023-05-10T12:22:05.817Z,71.44
2023-05-10T12:24:35.024Z,70.69
2023-05-10T12:27:05.853Z,71.36
2023-05-10T12:29:32.348Z,70.72
2023-05-10T12:32:01.106Z,66.14
2023-05-10T12:34:31.011Z,68.04
2023-05-10T12:36:57.755Z,66.22
2023-05-10T12:39:24.575Z,66.31
2023-05-10T12:41:51.474Z,67.76
2023-05-10T12:44:18.370Z,65.84
2023-05-10T12:46:44.870Z,66.66
2023-05-10T12:49:13.037Z,65.62
2023-05-10T12:51:39.668Z,65.66
2023-05-10T12:54:06.304Z,63.62
2023-05-10T12:56:32.852Z,64.10
2023-05-10T12:58:59.386Z,63.59
2023-05-10T13:01:25.970Z,64.04
2023-05-10T13:03:52.597Z,63.21
2023-05-10T13:06:20.512Z,64.51
2023-05-10T13:08:47.093Z,62.70
2023-05-10T13:11:13.627Z,64.16
2023-05-10T13:13:40.133Z,65.18
2023-05-10T13:16:07.435Z,67.18
2023-05-10T13:18:34.000Z,67.69
2023-05-10T13:21:00.543Z,66.90
2023-05-10T13:23:28.509Z,64.14
2023-05-10T13:25:55.035Z,65.06
2023-05-10T13:28:21.563Z,62.42
2023-05-10T13:30:48.051Z,63.31
2023-05-10T13:33:14.609Z,62.34
2023-05-10T13:35:41.267Z,60.44
2023-05-10T13:38:07.879Z,57.64
2023-05-10T13:40:35.863Z,58.68
2023-05-10T13:43:02.371Z,59.27
2023-05-10T13:45:28.873Z,58.69
2023-05-10T13:47:55.526Z,58.43
2023-05-10T13:50:22.014Z,60.31
2023-05-10T13:52:48.550Z,62.02
2023-05-10T13:55:15.551Z,62.23
2023-05-10T13:57:43.757Z,61.95
2023-05-10T14:00:11.255Z,62.77
2023-05-10T14:02:37.888Z,63.91
2023-05-10T14:05:05.422Z,66.55
2023-05-10T14:07:31.944Z,65.60
2023-05-10T14:09:58.459Z,66.81
2023-05-10T14:12:25.056Z,66.62
2023-05-10T14:14:53.076Z,66.57
2023-05-10T14:17:19.660Z,66.50
2023-05-10T14:19:46.165Z,66.27
2023-05-10T14:22:12.661Z,67.17
2023-05-10T14:24:39.477Z,67.11
2023-05-10T14:27:06.002Z,67.89
2023-05-10T14:29:32.491Z,69.64
2023-05-10T14:32:00.410Z,69.86
2023-05-10T14:34:27.131Z,69.66
2023-05-10T14:36:53.644Z,67.61
2023-05-10T14:39:20.154Z,67.88
2023-05-10T14:41:46.698Z,69.02
2023-05-10T14:44:13.359Z,70.03
2023-05-10T14:46:39.896Z,70.47
2023-05-10T14:49:07.773Z,69.30
2023-05-10T14:51:34.359Z,67.84
2023-05-10T14:54:00.906Z,67.02
2023-05-10T14:56:27.433Z,66.56
2023-05-10T14:58:53.950Z,66.59
2023-05-10T15:01:20.995Z,67.11
2023-05-10T15:03:48.068Z,67.10
2023-05-10T15:06:16.386Z,66.03
2023-05-10T15:08:42.933Z,65.31
2023-05-10T15:11:09.472Z,65.00
2023-05-10T15:13:36.079Z,66.67
2023-05-10T15:16:02.722Z,68.45
2023-05-10T15:18:29.316Z,68.79
2023-05-10T15:20:55.821Z,68.94
2023-05-10T15:23:23.687Z,70.45
2023-05-10T15:25:50.167Z,71.44
2023-05-10T15:28:16.695Z,73.21
2023-05-10T15:30:43.221Z,73.52
2023-05-10T15:33:09.799Z,74.70
2023-05-10T15:35:36.566Z,74.90
2023-05-10T15:38:03.345Z,75.23
2023-05-10T15:40:31.533Z,72.86
2023-05-10T15:42:58.125Z,72.18
2023-05-10T15:45:24.781Z,72.02
2023-05-10T15:47:51.354Z,71.16
2023-05-10T15:50:17.959Z,69.42
2023-05-10T15:52:44.683Z,67.61
2023-05-10T15:55:11.313Z,67.39
2023-05-10T15:57:39.284Z,66.02
2023-05-10T16:00:07.271Z,63.25
2023-05-10T16:02:39.123Z,63.40
2023-05-10T16:05:06.138Z,61.42
2023-05-10T16:07:32.658Z,57.70
2023-05-10T16:09:59.276Z,58.42
2023-05-10T16:12:25.930Z,57.43
2023-05-10T16:14:53.979Z,59.53
2023-05-10T16:17:20.545Z,58.82
2023-05-10T16:19:47.239Z,59.20
2023-05-10T16:22:13.885Z,58.95
2023-05-10T16:24:40.592Z,60.82
2023-05-10T16:27:07.089Z,62.49
2023-05-10T16:29:33.680Z,63.66
2023-05-10T16:32:01.555Z,64.36
2023-05-10T16:34:28.171Z,65.87
2023-05-10T16:36:54.723Z,68.45
2023-05-10T16:39:21.309Z,63.82
2023-05-10T16:41:48.075Z,59.79
2023-05-10T16:44:14.629Z,57.40
2023-05-10T16:46:41.436Z,58.43
2023-05-10T16:49:09.451Z,57.03
2023-05-10T16:51:35.986Z,56.95
2023-05-10T16:54:02.775Z,58.17
2023-05-10T16:56:29.358Z,59.88
2023-05-10T16:58:55.973Z,60.42
2023-05-10T17:01:24.925Z,60.04
2023-05-10T17:03:53.138Z,59.66
2023-05-10T17:06:21.193Z,59.48
2023-05-10T17:08:47.851Z,59.83
2023-05-10T17:11:14.644Z,61.10
2023-05-10T17:13:41.245Z,60.53
2023-05-10T17:16:08.251Z,60.33
2023-05-10T17:18:35.020Z,58.54
2023-05-10T17:21:01.749Z,59.06
2023-05-10T17:23:29.696Z,59.07
2023-05-10T17:25:56.200Z,59.87
2023-05-10T17:28:22.776Z,60.13
2023-05-10T17:30:55.585Z,59.67
2023-05-10T17:33:22.228Z,59.93
2023-05-10T17:35:49.087Z,58.76
2023-05-10T17:38:15.767Z,59.63
2023-05-10T17:40:43.740Z,59.13
2023-05-10T17:43:10.636Z,58.15
2023-05-10T17:45:37.180Z,58.66
2023-05-10T17:48:04.589Z,59.21
2023-05-10T17:50:31.194Z,60.21
2023-05-10T17:52:57.963Z,59.77
2023-05-10T17:55:24.510Z,61.28
2023-05-10T17:57:52.797Z,62.62
2023-05-10T18:00:19.619Z,63.37
2023-05-10T18:02:46.291Z,62.92
2023-05-10T18:05:13.039Z,64.35
2023-05-10T18:07:39.946Z,65.61
2023-05-10T18:10:07.694Z,65.32
2023-05-10T18:12:34.366Z,66.89
2023-05-10T18:15:02.228Z,67.13
2023-05-10T18:17:28.823Z,67.15
2023-05-10T18:19:55.349Z,67.82
2023-05-10T18:22:21.914Z,68.03
2023-05-10T18:24:48.569Z,69.15
2023-05-10T18:27:15.190Z,69.45
2023-05-10T18:29:41.688Z,69.95
2023-05-10T18:32:10.034Z,70.58
2023-05-10T18:34:36.603Z,70.83
2023-05-10T18:37:03.335Z,71.04
2023-05-10T18:39:29.860Z,71.49
2023-05-10T18:41:56.590Z,72.57
2023-05-10T18:44:23.180Z,73.66
2023-05-10T18:46:49.941Z,74.03
2023-05-10T18:49:18.493Z,74.75
2023-05-10T18:51:45.053Z,76.17
2023-05-10T18:54:11.568Z,77.03
2023-05-10T18:56:38.476Z,77.87
2023-05-10T18:59:05.016Z,78.40
2023-05-10T19:01:31.574Z,78.85
2023-05-10T19:03:58.044Z,79.49
2023-05-10T19:06:26.089Z,79.84
2023-05-10T19:08:52.638Z,80.69
2023-05-10T19:11:19.570Z,81.36
2023-05-10T19:13:46.127Z,82.10
2023-05-10T19:16:14.563Z,82.41
2023-05-10T19:18:41.183Z,82.77
2023-05-10T19:21:09.456Z,83.13
2023-05-10T19:23:37.657Z,83.47
2023-05-10T19:26:04.409Z,83.93
2023-05-10T19:28:31.175Z,83.92
2023-05-10T19:30:57.982Z,84.33
2023-05-10T19:33:24.549Z,84.75
2023-05-10T19:35:51.414Z,85.10
2023-05-10T19:38:20.058Z,85.68
2023-05-10T19:40:49.221Z,86.43
2023-05-10T19:43:16.378Z,87.33
2023-05-10T19:45:43.246Z,87.21
2023-05-10T19:48:11.113Z,87.63
2023-05-10T19:50:38.160Z,87.95
2023-05-10T19:53:04.765Z,88.40
2023-05-10T19:55:32.128Z,88.80
2023-05-10T19:58:00.029Z,88.88
2023-05-10T20:00:26.863Z,89.98
2023-05-10T20:02:54.032Z,90.28
2023-05-10T20:05:20.969Z,90.48
2023-05-10T20:07:47.545Z,90.73
2023-05-10T20:10:14.158Z,90.82
2023-05-10T20:12:40.704Z,90.92
2023-05-10T20:15:09.266Z,91.40
2023-05-10T20:17:35.837Z,91.10
2023-05-10T20:20:02.405Z,91.80
2023-05-10T20:22:29.129Z,92.21
2023-05-10T20:24:56.318Z,92.32
2023-05-10T20:27:22.869Z,92.81
2023-05-10T20:29:49.451Z,92.85
2023-05-10T20:32:17.282Z,92.70
2023-05-10T20:34:43.878Z,93.15
2023-05-10T20:37:10.448Z,93.08
2023-05-10T20:39:37.014Z,93.20
2023-05-10T20:42:03.592Z,93.64
2023-05-10T20:44:30.207Z,93.90
2023-05-10T20:46:56.837Z,94.24
2023-05-10T20:49:25.004Z,94.01
2023-05-10T20:51:51.564Z,94.71
2023-05-10T20:54:18.186Z,95.16
2023-05-10T20:56:44.701Z,95.27
2023-05-10T20:59:11.812Z,95.35
2023-05-10T21:01:38.358Z,95.59
2023-05-10T21:04:05.357Z,95.74
2023-05-10T21:06:33.224Z,95.60
2023-05-10T21:08:59.812Z,95.96
2023-05-10T21:11:26.336Z,95.66
2023-05-10T21:13:53.013Z,95.70
2023-05-10T21:16:19.664Z,95.88
2023-05-10T21:18:46.404Z,95.96
2023-05-10T21:21:13.040Z,96.29
2023-05-10T21:23:41.213Z,96.74
2023-05-10T21:26:07.708Z,96.27
2023-05-10T21:28:34.294Z,96.41
2023-05-10T21:31:00.835Z,96.51
2023-05-10T21:33:27.427Z,96.67
2023-05-10T21:35:53.993Z,96.73
2023-05-10T21:38:20.633Z,96.79
2023-05-10T21:40:48.648Z,97.39
2023-05-10T21:43:15.396Z,97.78
2023-05-10T21:45:41.906Z,98.64
2023-05-10T21:48:08.551Z,98.78
2023-05-10T21:50:35.239Z,98.82
2023-05-10T21:53:02.511Z,98.84
2023-05-10T21:55:29.153Z,98.64
2023-05-10T21:57:57.933Z,98.78
2023-05-10T22:00:24.448Z,98.71
2023-05-10T22:02:51.092Z,98.64
2023-05-10T22:05:17.738Z,98.47
2023-05-10T22:07:44.340Z,98.47
2023-05-10T22:10:11.182Z,98.15
2023-05-10T22:12:38.081Z,98.13
2023-05-10T22:15:10.270Z,98.32
2023-05-10T22:17:38.170Z,98.32
2023-05-10T22:20:06.021Z,98.85
2023-05-10T22:22:32.609Z,98.66
2023-05-10T22:24:59.183Z,98.73
2023-05-10T22:27:25.806Z,99.05
2023-05-10T22:29:52.297Z,98.93
2023-05-10T22:32:20.361Z,99.33
2023-05-10T22:34:46.990Z,99.21
2023-05-10T22:37:13.589Z,99.80
2023-05-10T22:39:40.159Z,100.00
2023-05-10T22:42:06.741Z,100.00
2023-05-10T22:44:33.250Z,100.00
2023-05-10T22:46:59.928Z,100.00
2023-05-10T22:49:27.798Z,100.00
2023-05-10T22:51:54.392Z,100.00
2023-05-10T22:54:20.900Z,100.00
2023-05-10T22:56:47.453Z,100.00
2023-05-10T22:59:14.022Z,100.00
2023-05-10T23:01:40.924Z,100.00
2023-05-10T23:04:07.472Z,100.00
2023-05-10T23:06:35.415Z,100.00
2023-05-10T23:09:01.974Z,100.00
2023-05-10T23:11:28.692Z,100.00
2023-05-10T23:13:55.348Z,100.00
2023-05-10T23:16:22.116Z,100.00
2023-05-10T23:18:48.709Z,100.00
2023-05-10T23:21:15.364Z,100.00
2023-05-10T23:23:43.268Z,100.00
2023-05-10T23:26:10.094Z,100.00
2023-05-10T23:28:36.644Z,99.20
2023-05-10T23:31:03.403Z,98.87
2023-05-10T23:33:29.940Z,98.23
2023-05-10T23:35:56.526Z,95.95
2023-05-10T23:38:23.090Z,96.65
2023-05-10T23:40:51.271Z,97.91
2023-05-10T23:43:17.875Z,97.87
2023-05-10T23:45:52.517Z,97.37
2023-05-10T23:48:19.191Z,97.96
2023-05-10T23:50:45.701Z,98.18
2023-05-10T23:53:12.349Z,97.21
2023-05-10T23:55:38.914Z,96.32
2023-05-10T23:58:06.836Z,97.21
